sensor_id;sensor_type;location;lat;lon;timestamp;P1;durP1;ratioP1;P2;durP2;ratioP2
12363;SDS011;6246;50.826;4.712;2023-11-21T00:00:36;18.10;;;13.40;;
12363;SDS011;6246;50.826;4.712;2023-11-21T00:03:02;19.33;;;13.53;;
12363;SDS011;6246;50.826;4.712;2023-11-21T00:05:29;14.83;;;12.60;;
12363;SDS011;6246;50.826;4.712;2023-11-21T00:07:55;16.33;;;13.13;;
12363;SDS011;6246;50.826;4.712;2023-11-21T00:10:21;19.03;;;14.77;;
12363;SDS011;6246;50.826;4.712;2023-11-21T00:12:47;18.60;;;13.07;;
12363;SDS011;6246;50.826;4.712;2023-11-21T00:15:13;16.60;;;12.63;;
12363;SDS011;6246;50.826;4.712;2023-11-21T00:17:39;16.60;;;13.53;;
12363;SDS011;6246;50.826;4.712;2023-11-21T00:20:06;15.03;;;12.63;;
12363;SDS011;6246;50.826;4.712;2023-11-21T00:22:35;15.83;;;12.40;;
12363;SDS011;6246;50.826;4.712;2023-11-21T00:25:01;14.63;;;12.53;;
12363;SDS011;6246;50.826;4.712;2023-11-21T00:27:29;15.43;;;12.40;;
12363;SDS011;6246;50.826;4.712;2023-11-21T00:29:55;14.73;;;12.13;;
12363;SDS011;6246;50.826;4.712;2023-11-21T00:32:21;14.67;;;12.47;;
12363;SDS011;6246;50.826;4.712;2023-11-21T00:34:47;13.87;;;12.00;;
12363;SDS011;6246;50.826;4.712;2023-11-21T00:37:14;15.10;;;11.83;;
12363;SDS011;6246;50.826;4.712;2023-11-21T00:39:40;15.47;;;11.70;;
12363;SDS011;6246;50.826;4.712;2023-11-21T00:42:06;14.07;;;11.60;;
12363;SDS011;6246;50.826;4.712;2023-11-21T00:44:33;14.87;;;10.93;;
12363;SDS011;6246;50.826;4.712;2023-11-21T00:46:59;14.97;;;11.20;;
12363;SDS011;6246;50.826;4.712;2023-11-21T00:49:25;14.53;;;11.23;;
12363;SDS011;6246;50.826;4.712;2023-11-21T00:51:53;14.00;;;11.17;;
12363;SDS011;6246;50.826;4.712;2023-11-21T00:54:19;15.90;;;11.53;;
12363;SDS011;6246;50.826;4.712;2023-11-21T00:56:45;13.97;;;10.83;;
12363;SDS011;6246;50.826;4.712;2023-11-21T00:59:13;15.03;;;10.53;;
12363;SDS011;6246;50.826;4.712;2023-11-21T01:01:39;18.80;;;10.93;;
12363;SDS011;6246;50.826;4.712;2023-11-21T01:04:05;15.63;;;10.90;;
12363;SDS011;6246;50.826;4.712;2023-11-21T01:06:32;14.03;;;11.13;;
12363;SDS011;6246;50.826;4.712;2023-11-21T01:08:58;15.47;;;10.90;;
12363;SDS011;6246;50.826;4.712;2023-11-21T01:11:24;13.20;;;10.63;;
12363;SDS011;6246;50.826;4.712;2023-11-21T01:13:51;12.17;;;10.30;;
12363;SDS011;6246;50.826;4.712;2023-11-21T01:16:18;13.53;;;10.13;;
12363;SDS011;6246;50.826;4.712;2023-11-21T01:18:44;14.47;;;9.83;;
12363;SDS011;6246;50.826;4.712;2023-11-21T01:21:10;12.23;;;10.07;;
12363;SDS011;6246;50.826;4.712;2023-11-21T01:23:37;12.20;;;9.90;;
12363;SDS011;6246;50.826;4.712;2023-11-21T01:26:03;11.93;;;9.53;;
12363;SDS011;6246;50.826;4.712;2023-11-21T01:28:29;14.07;;;9.43;;
12363;SDS011;6246;50.826;4.712;2023-11-21T01:30:55;12.77;;;9.70;;
12363;SDS011;6246;50.826;4.712;2023-11-21T01:33:21;11.57;;;9.30;;
12363;SDS011;6246;50.826;4.712;2023-11-21T01:35:49;10.03;;;8.93;;
12363;SDS011;6246;50.826;4.712;2023-11-21T01:38:15;12.53;;;9.17;;
12363;SDS011;6246;50.826;4.712;2023-11-21T01:40:42;10.33;;;8.87;;
12363;SDS011;6246;50.826;4.712;2023-11-21T01:43:08;11.63;;;8.97;;
12363;SDS011;6246;50.826;4.712;2023-11-21T01:45:34;12.33;;;8.77;;
12363;SDS011;6246;50.826;4.712;2023-11-21T01:48:00;10.43;;;8.30;;
12363;SDS011;6246;50.826;4.712;2023-11-21T01:50:28;12.20;;;8.33;;
12363;SDS011;6246;50.826;4.712;2023-11-21T01:52:54;11.73;;;8.40;;
12363;SDS011;6246;50.826;4.712;2023-11-21T01:55:20;12.33;;;8.57;;
12363;SDS011;6246;50.826;4.712;2023-11-21T01:57:46;11.80;;;8.60;;
12363;SDS011;6246;50.826;4.712;2023-11-21T02:00:13;14.27;;;8.67;;
12363;SDS011;6246;50.826;4.712;2023-11-21T02:02:47;9.67;;;7.77;;
12363;SDS011;6246;50.826;4.712;2023-11-21T02:05:17;11.43;;;8.60;;
12363;SDS011;6246;50.826;4.712;2023-11-21T02:07:44;11.50;;;8.20;;
12363;SDS011;6246;50.826;4.712;2023-11-21T02:10:12;9.43;;;7.80;;
12363;SDS011;6246;50.826;4.712;2023-11-21T02:12:40;10.37;;;8.27;;
12363;SDS011;6246;50.826;4.712;2023-11-21T02:15:07;10.40;;;8.40;;
12363;SDS011;6246;50.826;4.712;2023-11-21T02:17:40;9.50;;;7.90;;
12363;SDS011;6246;50.826;4.712;2023-11-21T02:20:06;9.07;;;7.47;;
12363;SDS011;6246;50.826;4.712;2023-11-21T02:22:40;9.10;;;7.73;;
12363;SDS011;6246;50.826;4.712;2023-11-21T02:25:07;9.97;;;7.30;;
12363;SDS011;6246;50.826;4.712;2023-11-21T02:27:33;9.70;;;7.70;;
12363;SDS011;6246;50.826;4.712;2023-11-21T02:29:59;7.97;;;7.03;;
12363;SDS011;6246;50.826;4.712;2023-11-21T02:32:26;9.47;;;7.40;;
12363;SDS011;6246;50.826;4.712;2023-11-21T02:34:52;8.60;;;7.07;;
12363;SDS011;6246;50.826;4.712;2023-11-21T02:37:20;11.93;;;7.43;;
12363;SDS011;6246;50.826;4.712;2023-11-21T02:39:46;8.77;;;6.83;;
12363;SDS011;6246;50.826;4.712;2023-11-21T02:42:12;9.03;;;7.40;;
12363;SDS011;6246;50.826;4.712;2023-11-21T02:44:38;8.40;;;7.10;;
12363;SDS011;6246;50.826;4.712;2023-11-21T02:47:04;10.40;;;7.20;;
12363;SDS011;6246;50.826;4.712;2023-11-21T02:49:31;8.03;;;6.80;;
12363;SDS011;6246;50.826;4.712;2023-11-21T02:51:59;8.27;;;7.10;;
12363;SDS011;6246;50.826;4.712;2023-11-21T02:54:26;10.77;;;6.87;;
12363;SDS011;6246;50.826;4.712;2023-11-21T02:56:52;8.10;;;6.77;;
12363;SDS011;6246;50.826;4.712;2023-11-21T02:59:18;8.67;;;7.23;;
12363;SDS011;6246;50.826;4.712;2023-11-21T03:01:44;7.57;;;6.30;;
12363;SDS011;6246;50.826;4.712;2023-11-21T03:04:11;9.27;;;6.80;;
12363;SDS011;6246;50.826;4.712;2023-11-21T03:06:42;8.00;;;6.47;;
12363;SDS011;6246;50.826;4.712;2023-11-21T03:09:09;8.03;;;6.40;;
12363;SDS011;6246;50.826;4.712;2023-11-21T03:11:36;7.57;;;6.13;;
12363;SDS011;6246;50.826;4.712;2023-11-21T03:14:02;7.73;;;6.53;;
12363;SDS011;6246;50.826;4.712;2023-11-21T03:16:28;8.30;;;6.20;;
12363;SDS011;6246;50.826;4.712;2023-11-21T03:18:57;8.43;;;6.37;;
12363;SDS011;6246;50.826;4.712;2023-11-21T03:21:23;7.77;;;6.63;;
12363;SDS011;6246;50.826;4.712;2023-11-21T03:23:51;7.23;;;6.17;;
12363;SDS011;6246;50.826;4.712;2023-11-21T03:26:17;6.73;;;5.60;;
12363;SDS011;6246;50.826;4.712;2023-11-21T03:28:43;6.60;;;5.87;;
12363;SDS011;6246;50.826;4.712;2023-11-21T03:31:11;8.00;;;6.43;;
12363;SDS011;6246;50.826;4.712;2023-11-21T03:33:37;8.60;;;6.47;;
12363;SDS011;6246;50.826;4.712;2023-11-21T03:36:03;7.47;;;5.80;;
12363;SDS011;6246;50.826;4.712;2023-11-21T03:38:29;7.23;;;6.00;;
12363;SDS011;6246;50.826;4.712;2023-11-21T03:40:55;7.47;;;5.97;;
12363;SDS011;6246;50.826;4.712;2023-11-21T03:43:21;7.27;;;5.87;;
12363;SDS011;6246;50.826;4.712;2023-11-21T03:45:47;8.37;;;5.87;;
12363;SDS011;6246;50.826;4.712;2023-11-21T03:48:13;6.93;;;5.77;;
12363;SDS011;6246;50.826;4.712;2023-11-21T03:50:39;6.67;;;5.63;;
12363;SDS011;6246;50.826;4.712;2023-11-21T03:53:05;7.20;;;5.90;;
12363;SDS011;6246;50.826;4.712;2023-11-21T03:55:31;6.20;;;5.60;;
12363;SDS011;6246;50.826;4.712;2023-11-21T03:57:58;5.87;;;5.30;;
12363;SDS011;6246;50.826;4.712;2023-11-21T04:00:24;11.07;;;5.43;;
12363;SDS011;6246;50.826;4.712;2023-11-21T04:02:51;6.20;;;5.60;;
12363;SDS011;6246;50.826;4.712;2023-11-21T04:05:17;6.53;;;5.27;;
12363;SDS011;6246;50.826;4.712;2023-11-21T04:07:43;5.70;;;5.10;;
12363;SDS011;6246;50.826;4.712;2023-11-21T04:10:09;6.07;;;5.23;;
12363;SDS011;6246;50.826;4.712;2023-11-21T04:12:38;7.97;;;5.50;;
12363;SDS011;6246;50.826;4.712;2023-11-21T04:15:04;6.67;;;5.10;;
12363;SDS011;6246;50.826;4.712;2023-11-21T04:17:30;8.03;;;5.60;;
12363;SDS011;6246;50.826;4.712;2023-11-21T04:19:56;6.73;;;4.80;;
12363;SDS011;6246;50.826;4.712;2023-11-21T04:22:22;5.63;;;5.03;;
12363;SDS011;6246;50.826;4.712;2023-11-21T04:24:48;7.57;;;5.20;;
12363;SDS011;6246;50.826;4.712;2023-11-21T04:27:14;5.43;;;4.93;;
12363;SDS011;6246;50.826;4.712;2023-11-21T04:29:42;6.27;;;5.40;;
12363;SDS011;6246;50.826;4.712;2023-11-21T04:32:09;5.53;;;4.87;;
12363;SDS011;6246;50.826;4.712;2023-11-21T04:34:35;5.23;;;4.73;;
12363;SDS011;6246;50.826;4.712;2023-11-21T04:37:01;5.20;;;4.70;;
12363;SDS011;6246;50.826;4.712;2023-11-21T04:39:28;6.13;;;5.00;;
12363;SDS011;6246;50.826;4.712;2023-11-21T04:41:54;6.17;;;5.20;;
12363;SDS011;6246;50.826;4.712;2023-11-21T04:44:20;5.53;;;4.50;;
12363;SDS011;6246;50.826;4.712;2023-11-21T04:46:46;5.63;;;4.63;;
12363;SDS011;6246;50.826;4.712;2023-11-21T04:49:12;4.83;;;4.43;;
12363;SDS011;6246;50.826;4.712;2023-11-21T04:51:38;5.97;;;4.70;;
12363;SDS011;6246;50.826;4.712;2023-11-21T04:54:04;5.97;;;4.50;;
12363;SDS011;6246;50.826;4.712;2023-11-21T04:56:30;6.13;;;4.80;;
12363;SDS011;6246;50.826;4.712;2023-11-21T04:58:56;5.67;;;4.50;;
12363;SDS011;6246;50.826;4.712;2023-11-21T05:01:23;5.47;;;4.53;;
12363;SDS011;6246;50.826;4.712;2023-11-21T05:03:49;5.70;;;4.70;;
12363;SDS011;6246;50.826;4.712;2023-11-21T05:06:15;4.80;;;4.40;;
12363;SDS011;6246;50.826;4.712;2023-11-21T05:08:41;6.07;;;4.40;;
12363;SDS011;6246;50.826;4.712;2023-11-21T05:11:07;6.13;;;4.50;;
12363;SDS011;6246;50.826;4.712;2023-11-21T05:13:35;6.10;;;4.67;;
12363;SDS011;6246;50.826;4.712;2023-11-21T05:16:01;5.87;;;4.13;;
12363;SDS011;6246;50.826;4.712;2023-11-21T05:18:29;5.57;;;4.57;;
12363;SDS011;6246;50.826;4.712;2023-11-21T05:20:55;4.60;;;4.20;;
12363;SDS011;6246;50.826;4.712;2023-11-21T05:23:21;5.57;;;4.33;;
12363;SDS011;6246;50.826;4.712;2023-11-21T05:25:47;6.80;;;4.40;;
12363;SDS011;6246;50.826;4.712;2023-11-21T05:28:14;5.07;;;4.43;;
12363;SDS011;6246;50.826;4.712;2023-11-21T05:30:39;4.87;;;4.37;;
12363;SDS011;6246;50.826;4.712;2023-11-21T05:33:06;5.17;;;4.20;;
12363;SDS011;6246;50.826;4.712;2023-11-21T05:35:32;4.67;;;4.27;;
12363;SDS011;6246;50.826;4.712;2023-11-21T05:37:57;5.63;;;4.23;;
12363;SDS011;6246;50.826;4.712;2023-11-21T05:40:24;4.90;;;4.27;;
12363;SDS011;6246;50.826;4.712;2023-11-21T05:42:54;4.47;;;4.07;;
12363;SDS011;6246;50.826;4.712;2023-11-21T05:45:21;5.30;;;4.20;;
12363;SDS011;6246;50.826;4.712;2023-11-21T05:47:47;5.13;;;4.20;;
12363;SDS011;6246;50.826;4.712;2023-11-21T05:50:14;5.73;;;3.97;;
12363;SDS011;6246;50.826;4.712;2023-11-21T05:52:41;5.13;;;4.00;;
12363;SDS011;6246;50.826;4.712;2023-11-21T05:55:07;8.43;;;4.13;;
12363;SDS011;6246;50.826;4.712;2023-11-21T05:57:37;5.63;;;4.33;;
12363;SDS011;6246;50.826;4.712;2023-11-21T06:00:07;5.67;;;3.90;;
12363;SDS011;6246;50.826;4.712;2023-11-21T06:02:38;4.23;;;3.83;;
12363;SDS011;6246;50.826;4.712;2023-11-21T06:05:05;6.13;;;4.33;;
12363;SDS011;6246;50.826;4.712;2023-11-21T06:07:31;5.10;;;4.10;;
12363;SDS011;6246;50.826;4.712;2023-11-21T06:09:57;4.40;;;3.93;;
12363;SDS011;6246;50.826;4.712;2023-11-21T06:12:23;4.20;;;3.90;;
12363;SDS011;6246;50.826;4.712;2023-11-21T06:14:49;4.30;;;3.90;;
12363;SDS011;6246;50.826;4.712;2023-11-21T06:17:16;4.20;;;3.80;;
12363;SDS011;6246;50.826;4.712;2023-11-21T06:19:42;5.03;;;3.43;;
12363;SDS011;6246;50.826;4.712;2023-11-21T06:22:10;7.83;;;4.00;;
12363;SDS011;6246;50.826;4.712;2023-11-21T06:24:36;4.87;;;3.67;;
12363;SDS011;6246;50.826;4.712;2023-11-21T06:27:06;3.90;;;3.60;;
12363;SDS011;6246;50.826;4.712;2023-11-21T06:29:32;5.30;;;3.83;;
12363;SDS011;6246;50.826;4.712;2023-11-21T06:31:58;6.17;;;3.50;;
12363;SDS011;6246;50.826;4.712;2023-11-21T06:34:24;3.73;;;3.33;;
12363;SDS011;6246;50.826;4.712;2023-11-21T06:36:50;4.77;;;3.90;;
12363;SDS011;6246;50.826;4.712;2023-11-21T06:39:16;4.70;;;4.00;;
12363;SDS011;6246;50.826;4.712;2023-11-21T06:41:42;4.40;;;3.83;;
12363;SDS011;6246;50.826;4.712;2023-11-21T06:44:08;4.17;;;3.40;;
12363;SDS011;6246;50.826;4.712;2023-11-21T06:46:34;5.80;;;3.57;;
12363;SDS011;6246;50.826;4.712;2023-11-21T06:49:00;5.53;;;3.63;;
12363;SDS011;6246;50.826;4.712;2023-11-21T06:51:26;4.03;;;3.60;;
12363;SDS011;6246;50.826;4.712;2023-11-21T06:53:52;3.67;;;3.13;;
12363;SDS011;6246;50.826;4.712;2023-11-21T06:56:18;4.47;;;3.50;;
12363;SDS011;6246;50.826;4.712;2023-11-21T06:58:45;4.20;;;3.37;;
12363;SDS011;6246;50.826;4.712;2023-11-21T07:01:12;4.57;;;3.33;;
12363;SDS011;6246;50.826;4.712;2023-11-21T07:03:38;3.80;;;3.20;;
12363;SDS011;6246;50.826;4.712;2023-11-21T07:06:04;3.87;;;3.50;;
12363;SDS011;6246;50.826;4.712;2023-11-21T07:08:30;5.17;;;3.33;;
12363;SDS011;6246;50.826;4.712;2023-11-21T07:10:56;3.47;;;3.17;;
12363;SDS011;6246;50.826;4.712;2023-11-21T07:13:22;3.40;;;3.10;;
12363;SDS011;6246;50.826;4.712;2023-11-21T07:15:48;3.47;;;3.17;;
12363;SDS011;6246;50.826;4.712;2023-11-21T07:18:15;3.30;;;3.00;;
12363;SDS011;6246;50.826;4.712;2023-11-21T07:20:41;3.50;;;3.20;;
12363;SDS011;6246;50.826;4.712;2023-11-21T07:23:07;3.93;;;3.30;;
12363;SDS011;6246;50.826;4.712;2023-11-21T07:25:32;6.57;;;3.47;;
12363;SDS011;6246;50.826;4.712;2023-11-21T07:27:59;4.00;;;3.60;;
12363;SDS011;6246;50.826;4.712;2023-11-21T07:30:25;3.93;;;3.33;;
12363;SDS011;6246;50.826;4.712;2023-11-21T07:32:52;6.43;;;3.30;;
12363;SDS011;6246;50.826;4.712;2023-11-21T07:35:18;3.00;;;2.80;;
12363;SDS011;6246;50.826;4.712;2023-11-21T07:37:44;3.13;;;2.83;;
12363;SDS011;6246;50.826;4.712;2023-11-21T07:40:10;3.20;;;2.90;;
12363;SDS011;6246;50.826;4.712;2023-11-21T07:42:36;3.10;;;2.90;;
12363;SDS011;6246;50.826;4.712;2023-11-21T07:45:03;3.37;;;2.93;;
12363;SDS011;6246;50.826;4.712;2023-11-21T07:47:29;3.67;;;2.80;;
12363;SDS011;6246;50.826;4.712;2023-11-21T07:49:55;3.97;;;2.97;;
12363;SDS011;6246;50.826;4.712;2023-11-21T07:52:22;3.50;;;3.20;;
12363;SDS011;6246;50.826;4.712;2023-11-21T07:54:48;3.33;;;3.07;;
12363;SDS011;6246;50.826;4.712;2023-11-21T07:57:14;3.27;;;2.77;;
12363;SDS011;6246;50.826;4.712;2023-11-21T07:59:40;4.27;;;2.90;;
12363;SDS011;6246;50.826;4.712;2023-11-21T08:02:06;2.93;;;2.73;;
12363;SDS011;6246;50.826;4.712;2023-11-21T08:04:32;2.63;;;2.43;;
12363;SDS011;6246;50.826;4.712;2023-11-21T08:07:00;5.37;;;2.80;;
12363;SDS011;6246;50.826;4.712;2023-11-21T08:09:26;4.23;;;3.10;;
12363;SDS011;6246;50.826;4.712;2023-11-21T08:11:52;4.53;;;3.20;;
12363;SDS011;6246;50.826;4.712;2023-11-21T08:14:18;2.90;;;2.70;;
12363;SDS011;6246;50.826;4.712;2023-11-21T08:16:45;2.87;;;2.63;;
12363;SDS011;6246;50.826;4.712;2023-11-21T08:19:12;4.23;;;2.90;;
12363;SDS011;6246;50.826;4.712;2023-11-21T08:21:38;2.90;;;2.70;;
12363;SDS011;6246;50.826;4.712;2023-11-21T08:24:06;3.20;;;2.90;;
12363;SDS011;6246;50.826;4.712;2023-11-21T08:26:35;3.53;;;3.07;;
12363;SDS011;6246;50.826;4.712;2023-11-21T08:29:01;4.03;;;2.60;;
12363;SDS011;6246;50.826;4.712;2023-11-21T08:31:27;2.67;;;2.47;;
12363;SDS011;6246;50.826;4.712;2023-11-21T08:33:54;3.13;;;2.60;;
12363;SDS011;6246;50.826;4.712;2023-11-21T08:36:23;4.60;;;2.27;;
12363;SDS011;6246;50.826;4.712;2023-11-21T08:38:50;4.77;;;2.70;;
12363;SDS011;6246;50.826;4.712;2023-11-21T08:41:19;7.17;;;3.00;;
12363;SDS011;6246;50.826;4.712;2023-11-21T08:43:47;10.53;;;2.90;;
12363;SDS011;6246;50.826;4.712;2023-11-21T08:46:13;4.97;;;2.90;;
12363;SDS011;6246;50.826;4.712;2023-11-21T08:48:40;2.20;;;2.10;;
12363;SDS011;6246;50.826;4.712;2023-11-21T08:51:06;6.40;;;2.77;;
12363;SDS011;6246;50.826;4.712;2023-11-21T08:53:36;2.83;;;2.43;;
12363;SDS011;6246;50.826;4.712;2023-11-21T08:56:02;2.57;;;2.30;;
12363;SDS011;6246;50.826;4.712;2023-11-21T08:58:29;2.80;;;2.60;;
12363;SDS011;6246;50.826;4.712;2023-11-21T09:00:55;2.80;;;2.30;;
12363;SDS011;6246;50.826;4.712;2023-11-21T09:03:21;2.40;;;2.20;;
12363;SDS011;6246;50.826;4.712;2023-11-21T09:05:47;3.33;;;3.03;;
12363;SDS011;6246;50.826;4.712;2023-11-21T09:08:13;3.90;;;2.77;;
12363;SDS011;6246;50.826;4.712;2023-11-21T09:10:39;3.63;;;2.17;;
12363;SDS011;6246;50.826;4.712;2023-11-21T09:13:08;3.63;;;2.57;;
12363;SDS011;6246;50.826;4.712;2023-11-21T09:15:35;12.10;;;3.10;;
12363;SDS011;6246;50.826;4.712;2023-11-21T09:18:01;4.53;;;2.70;;
12363;SDS011;6246;50.826;4.712;2023-11-21T09:20:27;7.67;;;2.90;;
12363;SDS011;6246;50.826;4.712;2023-11-21T09:22:53;7.47;;;3.07;;
12363;SDS011;6246;50.826;4.712;2023-11-21T09:25:20;4.03;;;3.13;;
12363;SDS011;6246;50.826;4.712;2023-11-21T09:27:47;4.67;;;2.53;;
12363;SDS011;6246;50.826;4.712;2023-11-21T09:30:13;6.80;;;2.90;;
12363;SDS011;6246;50.826;4.712;2023-11-21T09:32:40;4.50;;;2.70;;
12363;SDS011;6246;50.826;4.712;2023-11-21T09:35:06;4.97;;;2.70;;
12363;SDS011;6246;50.826;4.712;2023-11-21T09:37:36;2.77;;;2.30;;
12363;SDS011;6246;50.826;4.712;2023-11-21T09:40:03;5.00;;;2.93;;
12363;SDS011;6246;50.826;4.712;2023-11-21T09:42:31;2.83;;;2.40;;
12363;SDS011;6246;50.826;4.712;2023-11-21T09:45:03;3.37;;;2.80;;
12363;SDS011;6246;50.826;4.712;2023-11-21T09:47:29;8.03;;;2.73;;
12363;SDS011;6246;50.826;4.712;2023-11-21T09:49:56;4.03;;;2.63;;
12363;SDS011;6246;50.826;4.712;2023-11-21T09:52:25;5.13;;;2.50;;
12363;SDS011;6246;50.826;4.712;2023-11-21T09:54:51;4.03;;;2.27;;
12363;SDS011;6246;50.826;4.712;2023-11-21T09:57:25;3.00;;;2.70;;
12363;SDS011;6246;50.826;4.712;2023-11-21T09:59:52;3.07;;;2.77;;
12363;SDS011;6246;50.826;4.712;2023-11-21T10:02:22;4.70;;;2.87;;
12363;SDS011;6246;50.826;4.712;2023-11-21T10:04:51;3.90;;;2.87;;
12363;SDS011;6246;50.826;4.712;2023-11-21T10:07:17;3.00;;;2.70;;
12363;SDS011;6246;50.826;4.712;2023-11-21T10:09:44;3.67;;;2.40;;
12363;SDS011;6246;50.826;4.712;2023-11-21T10:12:11;2.97;;;2.30;;
12363;SDS011;6246;50.826;4.712;2023-11-21T10:14:37;4.67;;;3.00;;
12363;SDS011;6246;50.826;4.712;2023-11-21T10:17:06;5.07;;;2.43;;
12363;SDS011;6246;50.826;4.712;2023-11-21T10:19:33;3.07;;;2.57;;
12363;SDS011;6246;50.826;4.712;2023-11-21T10:22:01;5.63;;;2.87;;
12363;SDS011;6246;50.826;4.712;2023-11-21T10:24:28;2.67;;;2.47;;
12363;SDS011;6246;50.826;4.712;2023-11-21T10:26:54;6.30;;;2.70;;
12363;SDS011;6246;50.826;4.712;2023-11-21T10:29:20;2.90;;;2.47;;
12363;SDS011;6246;50.826;4.712;2023-11-21T10:31:49;2.57;;;2.37;;
12363;SDS011;6246;50.826;4.712;2023-11-21T10:34:19;3.33;;;2.77;;
12363;SDS011;6246;50.826;4.712;2023-11-21T10:36:45;2.27;;;2.07;;
12363;SDS011;6246;50.826;4.712;2023-11-21T10:39:16;4.70;;;2.37;;
12363;SDS011;6246;50.826;4.712;2023-11-21T10:41:43;3.63;;;2.73;;
12363;SDS011;6246;50.826;4.712;2023-11-21T10:44:10;4.27;;;2.33;;
12363;SDS011;6246;50.826;4.712;2023-11-21T10:46:39;2.70;;;2.50;;
12363;SDS011;6246;50.826;4.712;2023-11-21T10:49:07;4.23;;;2.37;;
12363;SDS011;6246;50.826;4.712;2023-11-21T10:51:34;3.13;;;2.47;;
12363;SDS011;6246;50.826;4.712;2023-11-21T10:54:00;3.80;;;2.40;;
12363;SDS011;6246;50.826;4.712;2023-11-21T10:56:26;6.70;;;2.87;;
12363;SDS011;6246;50.826;4.712;2023-11-21T10:58:55;3.40;;;2.63;;
12363;SDS011;6246;50.826;4.712;2023-11-21T11:01:21;5.77;;;2.87;;
12363;SDS011;6246;50.826;4.712;2023-11-21T11:03:50;5.33;;;3.00;;
12363;SDS011;6246;50.826;4.712;2023-11-21T11:06:19;4.27;;;3.17;;
12363;SDS011;6246;50.826;4.712;2023-11-21T11:08:45;4.50;;;3.60;;
12363;SDS011;6246;50.826;4.712;2023-11-21T11:11:12;6.03;;;4.20;;
12363;SDS011;6246;50.826;4.712;2023-11-21T11:13:39;5.87;;;3.70;;
12363;SDS011;6246;50.826;4.712;2023-11-21T11:16:10;5.33;;;3.87;;
12363;SDS011;6246;50.826;4.712;2023-11-21T11:18:37;7.27;;;4.20;;
12363;SDS011;6246;50.826;4.712;2023-11-21T11:31:39;5.97;;;4.33;;
12363;SDS011;6246;50.826;4.712;2023-11-21T11:36:47;5.60;;;4.60;;
12363;SDS011;6246;50.826;4.712;2023-11-21T11:39:27;8.40;;;4.90;;
12363;SDS011;6246;50.826;4.712;2023-11-21T11:41:55;9.47;;;5.27;;
12363;SDS011;6246;50.826;4.712;2023-11-21T11:47:22;4.97;;;4.47;;
12363;SDS011;6246;50.826;4.712;2023-11-21T11:50:08;7.13;;;5.00;;
12363;SDS011;6246;50.826;4.712;2023-11-21T11:55:12;5.83;;;4.40;;
12363;SDS011;6246;50.826;4.712;2023-11-21T11:57:48;7.17;;;4.67;;
12363;SDS011;6246;50.826;4.712;2023-11-21T12:00:18;7.60;;;5.00;;
12363;SDS011;6246;50.826;4.712;2023-11-21T12:02:51;9.33;;;5.40;;
12363;SDS011;6246;50.826;4.712;2023-11-21T12:05:18;9.03;;;5.40;;
12363;SDS011;6246;50.826;4.712;2023-11-21T12:10:13;6.27;;;5.00;;
12363;SDS011;6246;50.826;4.712;2023-11-21T12:12:43;6.97;;;5.10;;
12363;SDS011;6246;50.826;4.712;2023-11-21T12:15:10;6.20;;;5.30;;
12363;SDS011;6246;50.826;4.712;2023-11-21T12:17:37;6.43;;;5.00;;
12363;SDS011;6246;50.826;4.712;2023-11-21T12:20:04;6.70;;;4.70;;
12363;SDS011;6246;50.826;4.712;2023-11-21T12:22:31;8.97;;;5.47;;
12363;SDS011;6246;50.826;4.712;2023-11-21T12:24:57;7.27;;;5.10;;
12363;SDS011;6246;50.826;4.712;2023-11-21T12:27:24;12.03;;;5.47;;
12363;SDS011;6246;50.826;4.712;2023-11-21T12:29:50;9.27;;;6.17;;
12363;SDS011;6246;50.826;4.712;2023-11-21T12:32:16;11.20;;;6.57;;
12363;SDS011;6246;50.826;4.712;2023-11-21T12:34:43;8.27;;;5.70;;
12363;SDS011;6246;50.826;4.712;2023-11-21T12:37:09;9.87;;;6.40;;
12363;SDS011;6246;50.826;4.712;2023-11-21T12:39:35;12.23;;;6.17;;
12363;SDS011;6246;50.826;4.712;2023-11-21T12:42:01;10.00;;;6.20;;
12363;SDS011;6246;50.826;4.712;2023-11-21T12:44:27;10.23;;;6.07;;
12363;SDS011;6246;50.826;4.712;2023-11-21T12:46:54;12.57;;;6.97;;
12363;SDS011;6246;50.826;4.712;2023-11-21T12:49:20;10.70;;;6.00;;
12363;SDS011;6246;50.826;4.712;2023-11-21T12:51:47;10.07;;;6.30;;
12363;SDS011;6246;50.826;4.712;2023-11-21T12:54:13;10.07;;;6.40;;
12363;SDS011;6246;50.826;4.712;2023-11-21T12:56:40;11.47;;;6.10;;
12363;SDS011;6246;50.826;4.712;2023-11-21T12:59:06;10.80;;;5.63;;
12363;SDS011;6246;50.826;4.712;2023-11-21T13:01:36;9.97;;;5.97;;
12363;SDS011;6246;50.826;4.712;2023-11-21T13:04:04;9.63;;;6.60;;
12363;SDS011;6246;50.826;4.712;2023-11-21T13:06:35;6.50;;;5.60;;
12363;SDS011;6246;50.826;4.712;2023-11-21T13:09:06;9.63;;;5.73;;
12363;SDS011;6246;50.826;4.712;2023-11-21T13:11:35;7.60;;;6.00;;
12363;SDS011;6246;50.826;4.712;2023-11-21T13:14:01;7.03;;;5.60;;
12363;SDS011;6246;50.826;4.712;2023-11-21T13:16:28;9.77;;;6.23;;
12363;SDS011;6246;50.826;4.712;2023-11-21T13:18:56;11.63;;;5.67;;
12363;SDS011;6246;50.826;4.712;2023-11-21T13:21:23;7.73;;;6.27;;
12363;SDS011;6246;50.826;4.712;2023-11-21T13:23:49;8.20;;;5.70;;
12363;SDS011;6246;50.826;4.712;2023-11-21T13:26:17;7.80;;;5.47;;
12363;SDS011;6246;50.826;4.712;2023-11-21T13:28:45;7.67;;;5.60;;
12363;SDS011;6246;50.826;4.712;2023-11-21T13:31:12;9.60;;;6.20;;
12363;SDS011;6246;50.826;4.712;2023-11-21T13:33:56;12.40;;;5.90;;
12363;SDS011;6246;50.826;4.712;2023-11-21T13:36:29;8.87;;;5.93;;
12363;SDS011;6246;50.826;4.712;2023-11-21T13:38:58;11.73;;;5.93;;
12363;SDS011;6246;50.826;4.712;2023-11-21T13:41:29;13.03;;;5.93;;
12363;SDS011;6246;50.826;4.712;2023-11-21T13:43:56;10.57;;;5.63;;
12363;SDS011;6246;50.826;4.712;2023-11-21T13:46:51;9.47;;;5.97;;
12363;SDS011;6246;50.826;4.712;2023-11-21T13:49:17;10.63;;;5.93;;
12363;SDS011;6246;50.826;4.712;2023-11-21T13:51:46;9.77;;;5.90;;
12363;SDS011;6246;50.826;4.712;2023-11-21T13:54:15;10.03;;;5.50;;
12363;SDS011;6246;50.826;4.712;2023-11-21T13:56:41;12.23;;;5.43;;
12363;SDS011;6246;50.826;4.712;2023-11-21T13:59:09;10.13;;;5.47;;
12363;SDS011;6246;50.826;4.712;2023-11-21T14:01:48;15.93;;;6.23;;
12363;SDS011;6246;50.826;4.712;2023-11-21T14:04:20;18.47;;;7.40;;
12363;SDS011;6246;50.826;4.712;2023-11-21T14:06:56;14.27;;;6.23;;
12363;SDS011;6246;50.826;4.712;2023-11-21T14:09:24;15.20;;;6.47;;
12363;SDS011;6246;50.826;4.712;2023-11-21T14:11:54;17.73;;;6.77;;
12363;SDS011;6246;50.826;4.712;2023-11-21T14:14:22;13.10;;;6.20;;
12363;SDS011;6246;50.826;4.712;2023-11-21T14:16:49;9.60;;;6.07;;
12363;SDS011;6246;50.826;4.712;2023-11-21T14:19:16;11.43;;;6.20;;
12363;SDS011;6246;50.826;4.712;2023-11-21T14:21:42;14.67;;;6.20;;
12363;SDS011;6246;50.826;4.712;2023-11-21T14:24:09;12.53;;;5.87;;
12363;SDS011;6246;50.826;4.712;2023-11-21T14:26:35;11.17;;;6.20;;
12363;SDS011;6246;50.826;4.712;2023-11-21T14:29:01;14.30;;;6.00;;
12363;SDS011;6246;50.826;4.712;2023-11-21T14:31:28;13.47;;;5.90;;
12363;SDS011;6246;50.826;4.712;2023-11-21T14:33:56;8.90;;;5.63;;
12363;SDS011;6246;50.826;4.712;2023-11-21T14:36:22;11.83;;;6.30;;
12363;SDS011;6246;50.826;4.712;2023-11-21T14:38:49;11.27;;;6.37;;
12363;SDS011;6246;50.826;4.712;2023-11-21T14:41:15;10.50;;;5.40;;
12363;SDS011;6246;50.826;4.712;2023-11-21T14:43:41;11.67;;;6.40;;
12363;SDS011;6246;50.826;4.712;2023-11-21T14:46:08;10.40;;;5.60;;
12363;SDS011;6246;50.826;4.712;2023-11-21T14:48:35;9.20;;;5.53;;
12363;SDS011;6246;50.826;4.712;2023-11-21T14:51:08;11.73;;;5.73;;
12363;SDS011;6246;50.826;4.712;2023-11-21T14:53:40;10.33;;;5.87;;
12363;SDS011;6246;50.826;4.712;2023-11-21T14:56:21;10.53;;;5.87;;
12363;SDS011;6246;50.826;4.712;2023-11-21T14:58:58;12.73;;;6.00;;
12363;SDS011;6246;50.826;4.712;2023-11-21T15:01:32;10.23;;;5.33;;
12363;SDS011;6246;50.826;4.712;2023-11-21T15:04:16;13.17;;;5.30;;
12363;SDS011;6246;50.826;4.712;2023-11-21T15:07:00;10.97;;;5.50;;
12363;SDS011;6246;50.826;4.712;2023-11-21T15:09:27;8.20;;;5.47;;
12363;SDS011;6246;50.826;4.712;2023-11-21T15:12:13;10.30;;;5.40;;
12363;SDS011;6246;50.826;4.712;2023-11-21T15:17:13;8.83;;;5.47;;
12363;SDS011;6246;50.826;4.712;2023-11-21T15:19:46;7.83;;;5.50;;